createdAt,value
2017-10-11T00:00:09.152Z,0
2017-10-11T00:00:49.767Z,0
2017-10-11T00:01:30.268Z,0
2017-10-11T00:02:10.822Z,0
2017-10-11T00:02:51.329Z,0
2017-10-11T00:03:31.844Z,0
2017-10-11T00:04:12.564Z,0
2017-10-11T00:04:53.077Z,0
2017-10-11T00:05:33.664Z,0
2017-10-11T00:06:14.212Z,0
2017-10-11T00:06:54.731Z,0
2017-10-11T00:07:35.275Z,0
2017-10-11T00:08:15.768Z,0
2017-10-11T00:08:56.436Z,0
2017-10-11T00:09:36.909Z,0
2017-10-11T00:10:17.408Z,0
2017-10-11T00:10:57.991Z,0
2017-10-11T00:11:38.525Z,0
2017-10-11T00:12:19.084Z,0
2017-10-11T00:12:59.617Z,0
2017-10-11T00:13:40.171Z,0
2017-10-11T00:14:20.733Z,0
2017-10-11T00:15:01.275Z,0
2017-10-11T00:15:41.817Z,0
2017-10-11T00:16:22.314Z,0
2017-10-11T00:17:02.872Z,0
2017-10-11T00:17:43.408Z,0
2017-10-11T00:18:23.928Z,0
2017-10-11T00:19:04.508Z,0
2017-10-11T00:19:45.102Z,0
2017-10-11T00:20:25.660Z,0
2017-10-11T00:21:06.163Z,0
2017-10-11T00:21:46.663Z,0
2017-10-11T00:22:27.238Z,0
2017-10-11T00:23:07.786Z,0
2017-10-11T00:23:48.330Z,0
2017-10-11T00:24:28.812Z,0
2017-10-11T00:25:09.368Z,0
2017-10-11T00:25:49.891Z,0
2017-10-11T00:26:30.399Z,0
2017-10-11T00:27:10.961Z,0
2017-10-11T00:27:51.488Z,0
2017-10-11T00:28:32.013Z,0
2017-10-11T00:29:12.584Z,0
2017-10-11T00:29:53.152Z,0
2017-10-11T00:30:33.661Z,0
2017-10-11T00:31:14.209Z,0
2017-10-11T00:31:54.699Z,0
2017-10-11T00:32:35.273Z,0
2017-10-11T00:33:15.821Z,0
2017-10-11T00:33:56.330Z,0
2017-10-11T00:34:36.904Z,0
2017-10-11T00:35:17.420Z,0
2017-10-11T00:35:57.960Z,0
2017-10-11T00:36:38.490Z,0
2017-10-11T00:37:19.015Z,0
2017-10-11T00:37:59.546Z,0
2017-10-11T00:38:40.100Z,0
2017-10-11T00:39:20.594Z,0
2017-10-11T00:40:01.121Z,0
2017-10-11T00:40:41.690Z,0
2017-10-11T00:41:22.209Z,0
2017-10-11T00:42:02.780Z,0
2017-10-11T00:42:43.320Z,0
2017-10-11T00:43:23.856Z,0
2017-10-11T00:44:04.366Z,0
2017-10-11T00:44:44.946Z,0
2017-10-11T00:45:25.397Z,0
2017-10-11T00:46:05.975Z,0
2017-10-11T00:46:46.548Z,0
2017-10-11T00:47:27.069Z,0
2017-10-11T00:48:07.574Z,0
2017-10-11T00:48:48.106Z,0
2017-10-11T00:49:28.722Z,0
2017-10-11T00:50:09.260Z,0
2017-10-11T00:50:49.778Z,0
2017-10-11T00:51:30.391Z,0
2017-10-11T00:52:10.864Z,0
2017-10-11T00:52:51.430Z,0
2017-10-11T00:53:32.000Z,0
2017-10-11T00:54:12.536Z,0
2017-10-11T00:54:53.028Z,0
2017-10-11T00:55:33.579Z,0
2017-10-11T00:56:14.064Z,0
2017-10-11T00:56:54.604Z,0
2017-10-11T00:57:35.202Z,0
2017-10-11T00:58:15.658Z,0
2017-10-11T00:58:56.242Z,0
2017-10-11T00:59:36.783Z,0
2017-10-11T01:00:17.313Z,0
2017-10-11T01:00:57.812Z,0
2017-10-11T01:01:38.363Z,0
2017-10-11T01:02:18.917Z,0
2017-10-11T01:02:59.477Z,0
2017-10-11T01:03:40.021Z,0
2017-10-11T01:04:20.526Z,0
2017-10-11T01:05:01.096Z,0
2017-10-11T01:05:41.576Z,0
2017-10-11T01:06:22.133Z,0
2017-10-11T01:07:02.674Z,0
2017-10-11T01:07:43.279Z,0
2017-10-11T01:08:23.761Z,0
2017-10-11T01:09:04.324Z,0
2017-10-11T01:09:44.845Z,0
2017-10-11T01:10:25.389Z,0
2017-10-11T01:11:05.937Z,0
2017-10-11T01:11:46.440Z,0
2017-10-11T01:12:27.010Z,0
2017-10-11T01:13:07.551Z,0
2017-10-11T01:13:48.072Z,0
2017-10-11T01:14:28.570Z,0
2017-10-11T01:15:09.139Z,0
2017-10-11T01:15:49.664Z,0
2017-10-11T01:16:30.211Z,0
2017-10-11T01:17:10.785Z,0
2017-10-11T01:17:51.320Z,0
2017-10-11T01:18:31.870Z,0
2017-10-11T01:19:12.372Z,0
2017-10-11T01:19:52.963Z,0
2017-10-11T01:20:33.458Z,0
2017-10-11T01:21:14.018Z,0
2017-10-11T01:21:54.548Z,0
2017-10-11T01:22:35.055Z,0
2017-10-11T01:23:15.651Z,0
2017-10-11T01:23:56.174Z,0
2017-10-11T01:24:36.677Z,0
2017-10-11T01:25:17.207Z,0
2017-10-11T01:25:57.779Z,0
2017-10-11T01:26:38.312Z,0
2017-10-11T01:27:18.897Z,0
2017-10-11T01:27:59.429Z,0
2017-10-11T01:28:40.022Z,0
2017-10-11T01:29:20.521Z,0
2017-10-11T01:30:01.083Z,0
2017-10-11T01:30:41.668Z,0
2017-10-11T01:31:22.130Z,0
2017-10-11T01:32:02.714Z,0
2017-10-11T01:32:43.255Z,0
2017-10-11T01:33:23.804Z,0
2017-10-11T01:34:04.323Z,0
2017-10-11T01:34:44.902Z,0
2017-10-11T01:35:25.431Z,0
2017-10-11T01:36:05.925Z,0
2017-10-11T01:36:46.455Z,0
2017-10-11T01:37:27.022Z,0
2017-10-11T01:38:07.519Z,0
2017-10-11T01:38:48.034Z,0
2017-10-11T01:39:28.571Z,0
2017-10-11T01:40:09.125Z,0
2017-10-11T01:40:49.637Z,0
2017-10-11T01:41:30.164Z,0
2017-10-11T01:42:10.696Z,0
2017-10-11T01:42:51.223Z,0
2017-10-11T01:43:31.771Z,0
2017-10-11T01:44:12.291Z,0
2017-10-11T01:44:52.847Z,0
2017-10-11T01:45:33.401Z,0
2017-10-11T01:46:13.935Z,0
2017-10-11T01:46:54.423Z,0
2017-10-11T01:47:34.948Z,0
2017-10-11T01:48:15.445Z,0
2017-10-11T01:48:55.997Z,0
2017-10-11T01:49:36.539Z,0
2017-10-11T01:50:17.077Z,0
2017-10-11T01:50:57.608Z,0
2017-10-11T01:51:38.142Z,0
2017-10-11T01:52:18.681Z,0
2017-10-11T01:52:59.228Z,0
2017-10-11T01:53:39.703Z,0
2017-10-11T01:56:08.235Z,0
2017-10-11T01:56:48.722Z,0
2017-10-11T01:57:29.260Z,0
2017-10-11T01:58:09.801Z,0
2017-10-11T01:58:50.328Z,0
2017-10-11T01:59:30.834Z,0
2017-10-11T02:00:11.372Z,0
2017-10-11T02:00:51.877Z,0
2017-10-11T02:01:32.499Z,0
2017-10-11T02:02:13.010Z,0
2017-10-11T02:02:53.559Z,0
2017-10-11T02:03:34.058Z,0
2017-10-11T02:04:14.621Z,0
2017-10-11T02:04:55.145Z,0
2017-10-11T02:05:35.632Z,0
2017-10-11T02:06:16.189Z,0
2017-10-11T02:06:56.742Z,0
2017-10-11T02:07:37.250Z,0
2017-10-11T02:08:17.771Z,0
2017-10-11T02:08:58.333Z,0
2017-10-11T02:09:38.887Z,0
2017-10-11T02:10:19.403Z,0
2017-10-11T02:10:59.921Z,0
2017-10-11T02:11:40.465Z,0
2017-10-11T02:12:20.991Z,0
2017-10-11T02:13:01.529Z,0
2017-10-11T02:13:42.082Z,0
2017-10-11T02:14:22.620Z,0
2017-10-11T02:15:03.142Z,0
2017-10-11T02:15:43.695Z,0
2017-10-11T02:16:24.248Z,0
2017-10-11T02:17:04.729Z,0
2017-10-11T02:17:45.269Z,0
2017-10-11T02:18:25.831Z,0
2017-10-11T02:19:06.432Z,0
2017-10-11T02:19:46.893Z,0
2017-10-11T02:20:27.451Z,0
2017-10-11T02:21:07.956Z,0
2017-10-11T02:21:48.484Z,0
2017-10-11T02:22:29.018Z,0
2017-10-11T02:23:09.566Z,0
2017-10-11T02:23:50.121Z,0
2017-10-11T02:24:30.623Z,0
2017-10-11T02:25:11.138Z,0
2017-10-11T02:25:51.694Z,0
2017-10-11T02:26:32.216Z,0
2017-10-11T02:27:12.787Z,0
2017-10-11T02:27:53.309Z,0
2017-10-11T02:28:33.877Z,0
2017-10-11T02:29:14.357Z,0
2017-10-11T02:29:54.890Z,0
2017-10-11T02:30:36.146Z,0
2017-10-11T02:31:16.709Z,0
2017-10-11T02:31:57.269Z,0
2017-10-11T02:32:37.815Z,0
2017-10-11T02:33:18.349Z,0
2017-10-11T02:33:58.888Z,0
2017-10-11T02:34:39.412Z,0
2017-10-11T02:35:19.999Z,0
2017-10-11T02:36:00.517Z,0
2017-10-11T02:36:41.096Z,0
2017-10-11T02:37:21.563Z,0
2017-10-11T02:38:02.158Z,0
2017-10-11T02:38:42.646Z,0
2017-10-11T02:39:23.188Z,0
2017-10-11T02:40:03.707Z,0
2017-10-11T02:40:44.261Z,0
2017-10-11T02:41:24.785Z,0
2017-10-11T02:42:05.344Z,0
2017-10-11T02:42:45.850Z,0
2017-10-11T02:43:26.392Z,0
2017-10-11T02:44:06.940Z,0
2017-10-11T02:44:47.505Z,0
2017-10-11T02:45:28.054Z,0
2017-10-11T02:46:08.580Z,0
2017-10-11T02:46:49.093Z,0
2017-10-11T02:47:29.586Z,0
2017-10-11T02:49:43.900Z,0
2017-10-11T02:50:24.412Z,0
2017-10-11T02:51:04.966Z,0
2017-10-11T02:51:45.489Z,0
2017-10-11T02:52:26.051Z,0
2017-10-11T02:53:06.537Z,0
2017-10-11T02:53:47.041Z,0
2017-10-11T02:54:27.649Z,0
2017-10-11T02:55:08.155Z,0
2017-10-11T02:55:49.357Z,0
2017-10-11T02:56:29.940Z,0
2017-10-11T02:57:10.444Z,0
2017-10-11T02:57:50.985Z,0
2017-10-11T02:58:31.513Z,0
2017-10-11T02:59:12.042Z,0
2017-10-11T02:59:52.625Z,0
2017-10-11T03:00:33.185Z,0
2017-10-11T03:01:13.648Z,0
2017-10-11T03:01:54.172Z,0
2017-10-11T03:02:34.707Z,0
2017-10-11T03:03:16.001Z,0
2017-10-11T03:03:56.573Z,0
2017-10-11T03:04:37.122Z,0
2017-10-11T03:05:17.664Z,0
2017-10-11T03:05:58.173Z,0
2017-10-11T03:06:38.692Z,0
2017-10-11T03:07:19.212Z,0
2017-10-11T03:07:59.738Z,0
2017-10-11T03:08:40.358Z,0
2017-10-11T03:09:20.913Z,0
2017-10-11T03:10:01.425Z,0
2017-10-11T03:10:42.014Z,0
2017-10-11T03:11:22.548Z,0
2017-10-11T03:12:03.080Z,0
2017-10-11T03:12:43.637Z,0
2017-10-11T03:13:24.200Z,0
2017-10-11T03:14:04.750Z,0
2017-10-11T03:14:45.264Z,0
2017-10-11T03:15:25.803Z,0
2017-10-11T03:16:06.400Z,0
2017-10-11T03:16:46.925Z,0
2017-10-11T03:17:27.413Z,0
2017-10-11T03:18:07.951Z,0
2017-10-11T03:18:48.493Z,0
2017-10-11T03:19:29.038Z,0
2017-10-11T03:20:09.597Z,0
2017-10-11T03:20:50.122Z,0
2017-10-11T03:21:30.668Z,0
2017-10-11T03:22:11.211Z,0
2017-10-11T03:22:51.732Z,0
2017-10-11T03:23:32.301Z,0
2017-10-11T03:24:12.904Z,0
2017-10-11T03:24:53.488Z,0
2017-10-11T03:25:33.973Z,0
2017-10-11T03:26:14.531Z,0
2017-10-11T03:26:55.072Z,0
2017-10-11T03:27:35.574Z,0
2017-10-11T03:28:16.126Z,0
2017-10-11T03:28:56.677Z,0
2017-10-11T03:29:37.196Z,0
2017-10-11T03:30:17.743Z,0
2017-10-11T03:30:58.265Z,0
2017-10-11T03:31:38.775Z,0
2017-10-11T03:32:19.374Z,0
2017-10-11T03:32:59.844Z,0
2017-10-11T03:33:40.400Z,0
2017-10-11T03:34:20.927Z,0
2017-10-11T03:35:01.441Z,0
2017-10-11T03:35:42.003Z,0
2017-10-11T03:36:22.517Z,0
2017-10-11T03:37:03.046Z,0
2017-10-11T03:37:43.589Z,0
2017-10-11T03:38:24.151Z,0
2017-10-11T03:39:04.676Z,0
2017-10-11T03:39:45.232Z,0
2017-10-11T03:40:25.692Z,0
2017-10-11T03:41:06.265Z,0
2017-10-11T03:41:46.831Z,0
2017-10-11T03:42:27.320Z,0
2017-10-11T03:43:07.898Z,0
2017-10-11T03:43:48.428Z,0
2017-10-11T03:44:28.935Z,0
2017-10-11T03:45:09.525Z,0
2017-10-11T03:45:50.075Z,0
2017-10-11T03:46:30.572Z,0
2017-10-11T03:47:11.105Z,0
2017-10-11T03:47:51.642Z,0
2017-10-11T03:48:32.191Z,0
2017-10-11T03:49:12.712Z,0
2017-10-11T03:49:53.236Z,0
2017-10-11T03:50:33.833Z,0
2017-10-11T03:51:14.318Z,0
2017-10-11T03:51:54.926Z,0
2017-10-11T03:52:35.414Z,0
2017-10-11T03:53:15.981Z,0
2017-10-11T03:53:56.548Z,0
2017-10-11T03:54:37.082Z,0
2017-10-11T03:55:17.692Z,0
2017-10-11T03:55:58.191Z,0
2017-10-11T03:56:38.753Z,0
2017-10-11T03:57:19.308Z,0
2017-10-11T03:57:59.885Z,0
2017-10-11T03:58:40.413Z,0
2017-10-11T03:59:21.741Z,0
2017-10-11T04:00:01.439Z,0
2017-10-11T04:00:41.981Z,0
2017-10-11T04:01:22.544Z,0
2017-10-11T04:02:03.103Z,0
2017-10-11T04:02:43.621Z,0
2017-10-11T04:03:24.167Z,0
2017-10-11T04:04:04.747Z,0
2017-10-11T04:04:45.288Z,0
2017-10-11T04:05:25.813Z,0
2017-10-11T04:06:06.351Z,0
2017-10-11T04:06:46.872Z,0
2017-10-11T04:07:27.420Z,0
2017-10-11T04:08:07.961Z,0
2017-10-11T04:08:48.587Z,0
2017-10-11T04:09:29.088Z,0
2017-10-11T04:10:09.634Z,0
2017-10-11T04:10:50.277Z,0
2017-10-11T04:11:30.746Z,0
2017-10-11T04:12:11.272Z,0
2017-10-11T04:12:51.869Z,0
2017-10-11T04:13:32.375Z,0
2017-10-11T04:14:12.950Z,0
2017-10-11T04:14:53.481Z,0
2017-10-11T04:15:34.100Z,0
2017-10-11T04:16:14.525Z,0
2017-10-11T04:16:55.133Z,0
2017-10-11T04:17:35.712Z,0
2017-10-11T04:18:16.207Z,0
2017-10-11T04:18:56.791Z,0
2017-10-11T04:19:37.322Z,0
2017-10-11T04:20:17.855Z,0
2017-10-11T04:20:58.420Z,0
2017-10-11T04:21:38.910Z,0
2017-10-11T04:22:19.518Z,0
2017-10-11T04:23:00.023Z,0
2017-10-11T04:23:40.617Z,0
2017-10-11T04:24:21.103Z,0
2017-10-11T04:25:01.609Z,0
2017-10-11T04:25:42.212Z,0
2017-10-11T04:26:22.730Z,0
2017-10-11T04:27:03.271Z,0
2017-10-11T04:27:43.870Z,0
2017-10-11T04:28:24.329Z,0
2017-10-11T04:29:04.861Z,0
2017-10-11T04:29:45.396Z,0
2017-10-11T04:30:25.928Z,0
2017-10-11T04:31:06.457Z,0
2017-10-11T04:31:47.108Z,0
2017-10-11T04:32:27.587Z,0
2017-10-11T04:33:08.157Z,0
2017-10-11T04:33:48.688Z,0
2017-10-11T04:34:29.257Z,0
2017-10-11T04:35:09.814Z,0
2017-10-11T04:35:50.411Z,0
2017-10-11T04:36:30.967Z,0
2017-10-11T04:37:11.498Z,0
2017-10-11T04:37:52.024Z,0
2017-10-11T04:38:32.637Z,0
2017-10-11T04:39:13.189Z,0
2017-10-11T04:39:53.734Z,0
2017-10-11T04:40:34.277Z,0
2017-10-11T04:41:14.794Z,0
2017-10-11T04:41:55.512Z,0
2017-10-11T04:42:36.040Z,0
2017-10-11T04:43:16.644Z,0
2017-10-11T04:43:57.107Z,0
2017-10-11T04:44:37.659Z,0
2017-10-11T04:45:18.216Z,0
2017-10-11T04:45:58.810Z,0
2017-10-11T04:46:39.368Z,0
2017-10-11T04:47:19.919Z,0
2017-10-11T04:48:00.592Z,0
2017-10-11T04:48:41.232Z,0
2017-10-11T04:49:21.829Z,0
2017-10-11T04:50:02.468Z,0
2017-10-11T04:50:43.125Z,0
2017-10-11T04:51:23.578Z,0
2017-10-11T04:52:04.141Z,0
2017-10-11T04:52:44.758Z,0
2017-10-11T04:53:25.255Z,0
2017-10-11T04:54:05.853Z,0
2017-10-11T04:54:46.441Z,0
2017-10-11T04:55:26.902Z,0
2017-10-11T04:56:07.497Z,0
2017-10-11T04:56:47.989Z,0
2017-10-11T04:57:28.669Z,0
2017-10-11T04:58:09.169Z,0
2017-10-11T04:58:49.709Z,0
2017-10-11T04:59:30.288Z,0
2017-10-11T05:00:10.803Z,0
2017-10-11T05:00:51.402Z,0
2017-10-11T05:01:31.855Z,0
2017-10-11T05:02:12.426Z,0
2017-10-11T05:02:52.939Z,0
2017-10-11T05:03:33.637Z,0
2017-10-11T05:04:14.135Z,0
2017-10-11T05:04:54.643Z,0
2017-10-11T05:05:35.241Z,0
2017-10-11T05:06:15.771Z,0
2017-10-11T05:06:56.382Z,0
2017-10-11T05:07:36.923Z,0
2017-10-11T05:08:17.454Z,0
2017-10-11T05:08:58.070Z,0
2017-10-11T05:09:38.559Z,0
2017-10-11T05:10:19.471Z,0
2017-10-11T05:10:59.828Z,0
2017-10-11T05:11:40.330Z,0
2017-10-11T05:12:21.794Z,0
2017-10-11T05:13:02.324Z,0
2017-10-11T05:13:42.873Z,0
2017-10-11T05:14:23.410Z,0
2017-10-11T05:15:04.141Z,4
2017-10-11T05:15:44.948Z,4
2017-10-11T05:16:25.541Z,4
2017-10-11T05:17:06.048Z,0
2017-10-11T05:17:46.644Z,0
2017-10-11T05:18:27.190Z,4
2017-10-11T05:19:07.792Z,4
2017-10-11T05:19:49.167Z,8
2017-10-11T05:20:33.405Z,4
2017-10-11T05:21:13.922Z,8
2017-10-11T05:21:54.517Z,4
2017-10-11T05:22:36.723Z,4
2017-10-11T05:23:18.447Z,8
2017-10-11T05:23:58.916Z,12
2017-10-11T05:24:40.907Z,12
2017-10-11T05:25:22.300Z,12
2017-10-11T05:26:02.965Z,12
2017-10-11T05:26:43.509Z,16
2017-10-11T05:27:24.052Z,20
2017-10-11T05:28:04.990Z,20
2017-10-11T05:28:45.518Z,24
2017-10-11T05:29:26.072Z,28
2017-10-11T05:30:06.586Z,28
2017-10-11T05:30:47.154Z,32
2017-10-11T05:31:27.723Z,36
2017-10-11T05:32:08.167Z,36
2017-10-11T05:32:48.718Z,40
2017-10-11T05:33:29.267Z,44
2017-10-11T05:34:10.463Z,48
2017-10-11T05:34:51.027Z,48
2017-10-11T05:35:32.378Z,56
2017-10-11T05:36:13.927Z,56
2017-10-11T05:36:54.472Z,64
2017-10-11T05:37:35.043Z,68
2017-10-11T05:38:15.665Z,72
2017-10-11T05:38:56.169Z,80
2017-10-11T05:39:36.884Z,80
2017-10-11T05:40:17.302Z,92
2017-10-11T05:40:57.839Z,92
2017-10-11T05:41:38.382Z,104
2017-10-11T05:42:19.154Z,112
2017-10-11T05:42:59.758Z,120
2017-10-11T05:43:40.236Z,132
2017-10-11T05:44:20.863Z,140
2017-10-11T05:45:01.385Z,148
2017-10-11T05:45:42.080Z,156
2017-10-11T05:46:22.615Z,168
2017-10-11T05:47:03.135Z,180
2017-10-11T05:47:43.661Z,192
2017-10-11T05:48:24.214Z,204
2017-10-11T05:49:04.765Z,216
2017-10-11T05:49:45.303Z,228
2017-10-11T05:50:25.883Z,240
2017-10-11T05:51:06.394Z,248
2017-10-11T05:51:46.955Z,260
2017-10-11T05:52:27.448Z,276
2017-10-11T05:53:08.027Z,288
2017-10-11T05:53:48.544Z,304
2017-10-11T05:54:29.108Z,316
2017-10-11T05:55:09.666Z,328
2017-10-11T05:55:50.240Z,344
2017-10-11T05:56:31.674Z,356
2017-10-11T05:57:12.166Z,372
2017-10-11T05:57:52.733Z,392
2017-10-11T05:58:33.255Z,412
2017-10-11T05:59:13.838Z,424
2017-10-11T05:59:54.448Z,444
2017-10-11T06:00:35.017Z,460
2017-10-11T06:01:15.541Z,484
2017-10-11T06:01:56.055Z,504
2017-10-11T06:02:36.823Z,528
2017-10-11T06:03:17.389Z,548
2017-10-11T06:03:57.943Z,572
2017-10-11T06:04:38.688Z,604
2017-10-11T06:05:19.251Z,632
2017-10-11T06:05:59.767Z,660
2017-10-11T06:06:40.289Z,688
2017-10-11T06:07:20.822Z,716
2017-10-11T06:08:01.473Z,736
2017-10-11T06:08:41.908Z,768
2017-10-11T06:09:22.573Z,800
2017-10-11T06:10:03.319Z,836
2017-10-11T06:10:44.024Z,860
2017-10-11T06:11:24.554Z,892
2017-10-11T06:12:05.128Z,924
2017-10-11T06:12:45.629Z,972
2017-10-11T06:13:26.167Z,1004
2017-10-11T06:14:06.786Z,1028
2017-10-11T06:14:47.260Z,1028
2017-10-11T06:15:27.756Z,1028
2017-10-11T06:16:08.419Z,1052
2017-10-11T06:16:48.963Z,1060
2017-10-11T06:17:29.441Z,1060
2017-10-11T06:18:10.034Z,1056
2017-10-11T06:18:50.586Z,1060
2017-10-11T06:19:31.211Z,1056
2017-10-11T06:20:11.698Z,1052
2017-10-11T06:20:52.266Z,1080
2017-10-11T06:21:32.808Z,1092
2017-10-11T06:22:13.441Z,1088
2017-10-11T06:22:53.919Z,1104
2017-10-11T06:23:34.491Z,1100
2017-10-11T06:24:15.181Z,1096
2017-10-11T06:24:55.746Z,1096
2017-10-11T06:25:36.289Z,1168
2017-10-11T06:26:16.810Z,1252
2017-10-11T06:26:57.294Z,1212
2017-10-11T06:27:37.901Z,1164
2017-10-11T06:28:18.415Z,1164
2017-10-11T06:28:58.962Z,1176
2017-10-11T06:29:39.504Z,1268
2017-10-11T06:30:20.051Z,1300
2017-10-11T06:31:00.610Z,1340
2017-10-11T06:31:41.118Z,1412
2017-10-11T06:32:21.653Z,1584
2017-10-11T06:33:02.201Z,1800
2017-10-11T06:33:42.771Z,1884
2017-10-11T06:34:23.286Z,1944
2017-10-11T06:35:03.807Z,1968
2017-10-11T06:35:44.343Z,1992
2017-10-11T06:36:24.977Z,2028
2017-10-11T06:37:05.468Z,2080
2017-10-11T06:37:46.017Z,2068
2017-10-11T06:38:26.513Z,1964
2017-10-11T06:39:07.112Z,1896
2017-10-11T06:39:47.621Z,1884
2017-10-11T06:40:28.153Z,1884
2017-10-11T06:41:08.744Z,1864
2017-10-11T06:41:49.225Z,1880
2017-10-11T06:42:29.867Z,1884
2017-10-11T06:43:10.327Z,1904
2017-10-11T06:43:50.902Z,1940
2017-10-11T06:44:31.476Z,1948
2017-10-11T06:45:12.029Z,1960
2017-10-11T06:45:52.632Z,1864
2017-10-11T06:46:33.142Z,1864
2017-10-11T06:47:13.681Z,1728
2017-10-11T06:47:54.162Z,1664
2017-10-11T06:48:34.745Z,1680
2017-10-11T06:49:15.337Z,1588
2017-10-11T06:49:55.905Z,1564
2017-10-11T06:50:36.476Z,1532
2017-10-11T06:51:17.070Z,1496
2017-10-11T06:51:57.657Z,1564
2017-10-11T06:52:38.157Z,1564
2017-10-11T06:53:18.684Z,1484
2017-10-11T06:53:59.231Z,1456
2017-10-11T06:54:39.810Z,1400
2017-10-11T06:55:20.302Z,1336
2017-10-11T06:56:00.852Z,1316
2017-10-11T06:56:41.425Z,1360
2017-10-11T06:57:21.949Z,1368
2017-10-11T06:58:02.458Z,1220
2017-10-11T06:58:43.010Z,1184
2017-10-11T06:59:23.525Z,1156
2017-10-11T07:00:04.083Z,1172
2017-10-11T07:00:44.667Z,1212
2017-10-11T07:01:25.192Z,1312
2017-10-11T07:02:05.728Z,1400
2017-10-11T07:02:46.291Z,1420
2017-10-11T07:03:26.804Z,1420
2017-10-11T07:04:07.401Z,1400
2017-10-11T07:04:47.920Z,1412
2017-10-11T07:05:28.469Z,1448
2017-10-11T07:06:09.011Z,1476
2017-10-11T07:06:49.552Z,1520
2017-10-11T07:07:30.034Z,1544
2017-10-11T07:08:10.584Z,1552
2017-10-11T07:08:51.152Z,1564
2017-10-11T07:09:31.678Z,1612
2017-10-11T07:10:12.248Z,1676
2017-10-11T07:10:52.826Z,1708
2017-10-11T07:11:33.359Z,1732
2017-10-11T07:12:13.895Z,1784
2017-10-11T07:12:54.413Z,1892
2017-10-11T07:13:35.004Z,2020
2017-10-11T07:14:15.561Z,2128
2017-10-11T07:14:56.102Z,2184
2017-10-11T07:15:36.618Z,2136
2017-10-11T07:16:17.190Z,2084
2017-10-11T07:16:57.709Z,2080
2017-10-11T07:17:38.255Z,2040
2017-10-11T07:18:18.758Z,1960
2017-10-11T07:18:59.337Z,1964
2017-10-11T07:19:39.979Z,1956
2017-10-11T07:20:20.590Z,1980
2017-10-11T07:21:01.223Z,2040
2017-10-11T07:21:41.802Z,2060
2017-10-11T07:22:22.361Z,2056
2017-10-11T07:23:02.912Z,2108
2017-10-11T07:23:43.482Z,2260
2017-10-11T07:24:24.069Z,2404
2017-10-11T07:25:04.551Z,2516
2017-10-11T07:25:45.111Z,2700
2017-10-11T07:26:25.652Z,2836
2017-10-11T07:27:06.241Z,2944
2017-10-11T07:27:46.803Z,2980
2017-10-11T07:28:27.348Z,3076
2017-10-11T07:29:07.934Z,3016
2017-10-11T07:29:48.467Z,2996
2017-10-11T07:30:29.008Z,3056
2017-10-11T07:31:09.559Z,3140
2017-10-11T07:31:50.101Z,3200
2017-10-11T07:32:30.633Z,3240
2017-10-11T07:33:11.133Z,3264
2017-10-11T07:33:51.637Z,3348
2017-10-11T07:34:32.197Z,3384
2017-10-11T07:35:12.744Z,3352
2017-10-11T07:35:53.286Z,3376
2017-10-11T07:36:33.856Z,3452
2017-10-11T07:37:14.468Z,3504
2017-10-11T07:37:54.978Z,3452
2017-10-11T07:38:35.485Z,3416
2017-10-11T07:39:16.045Z,3384
2017-10-11T07:39:56.566Z,3324
2017-10-11T07:40:37.139Z,3304
2017-10-11T07:41:17.634Z,3308
2017-10-11T07:41:58.183Z,3356
2017-10-11T07:42:38.725Z,3332
2017-10-11T07:43:19.278Z,3308
2017-10-11T07:43:59.813Z,3308
2017-10-11T07:44:40.393Z,3332
2017-10-11T07:45:20.933Z,3268
2017-10-11T07:46:01.473Z,3236
2017-10-11T07:46:42.005Z,3260
2017-10-11T07:47:22.568Z,3244
2017-10-11T07:48:03.105Z,3236
2017-10-11T07:48:43.646Z,3248
2017-10-11T07:49:24.210Z,3324
2017-10-11T07:50:04.760Z,3360
2017-10-11T07:50:45.309Z,3344
2017-10-11T07:51:25.883Z,3240
2017-10-11T07:52:06.442Z,3164
2017-10-11T07:52:46.991Z,3092
2017-10-11T07:53:27.565Z,3028
2017-10-11T07:54:08.091Z,2992
2017-10-11T07:54:48.630Z,2972
2017-10-11T07:55:29.163Z,2952
2017-10-11T07:56:09.750Z,2996
2017-10-11T07:56:50.275Z,3096
2017-10-11T07:57:30.819Z,3276
2017-10-11T07:58:11.355Z,3320
2017-10-11T07:58:51.967Z,3288
2017-10-11T07:59:32.494Z,3256
2017-10-11T08:00:13.058Z,3236
2017-10-11T08:00:53.614Z,3260
2017-10-11T08:01:34.113Z,3224
2017-10-11T08:02:14.677Z,3140
2017-10-11T08:02:55.223Z,3068
2017-10-11T08:03:35.752Z,2984
2017-10-11T08:04:16.290Z,2956
2017-10-11T08:04:56.853Z,2872
2017-10-11T08:05:37.377Z,2884
2017-10-11T08:06:17.918Z,2908
2017-10-11T08:06:58.486Z,2952
2017-10-11T08:07:39.031Z,3036
2017-10-11T08:08:19.583Z,3104
2017-10-11T08:09:00.119Z,3160
2017-10-11T08:09:40.698Z,3204
2017-10-11T08:10:21.232Z,3232
2017-10-11T08:11:01.784Z,3352
2017-10-11T08:11:42.337Z,3392
2017-10-11T08:12:22.907Z,3456
2017-10-11T08:13:03.444Z,3480
2017-10-11T08:13:43.986Z,3560
2017-10-11T08:14:24.533Z,3576
2017-10-11T08:15:05.092Z,3540
2017-10-11T08:15:45.635Z,3584
2017-10-11T08:16:26.196Z,3680
2017-10-11T08:17:06.747Z,3704
2017-10-11T08:17:47.311Z,3716
2017-10-11T08:18:27.855Z,3760
2017-10-11T08:19:08.441Z,3716
2017-10-11T08:19:49.010Z,3720
2017-10-11T08:20:29.548Z,3652
2017-10-11T08:21:10.086Z,3704
2017-10-11T08:21:50.669Z,3736
2017-10-11T08:22:31.222Z,3764
2017-10-11T08:23:11.774Z,3856
2017-10-11T08:23:52.331Z,3892
2017-10-11T08:24:32.877Z,3892
2017-10-11T08:25:13.444Z,3900
2017-10-11T08:25:54.012Z,3916
2017-10-11T08:26:34.550Z,3900
2017-10-11T08:27:15.097Z,3892
2017-10-11T08:27:55.654Z,3800
2017-10-11T08:28:36.216Z,3728
2017-10-11T08:29:16.768Z,3732
2017-10-11T08:29:57.303Z,3716
2017-10-11T08:30:37.834Z,3752
2017-10-11T08:31:18.415Z,3932
2017-10-11T08:31:58.943Z,4100
2017-10-11T08:32:39.506Z,3992
2017-10-11T08:33:20.035Z,3952
2017-10-11T08:34:00.574Z,4024
2017-10-11T08:34:41.121Z,4108
2017-10-11T08:35:21.682Z,4168
2017-10-11T08:36:02.253Z,4068
2017-10-11T08:36:42.826Z,3924
2017-10-11T08:37:23.356Z,3972
2017-10-11T08:38:03.903Z,4080
2017-10-11T08:38:44.471Z,4176
2017-10-11T08:39:25.006Z,4280
2017-10-11T08:40:05.566Z,4340
2017-10-11T08:40:46.125Z,4368
2017-10-11T08:41:26.653Z,4380
2017-10-11T08:42:07.227Z,4376
2017-10-11T08:42:47.785Z,4328
2017-10-11T08:43:28.348Z,4232
2017-10-11T08:44:08.883Z,4320
2017-10-11T08:44:49.434Z,4352
2017-10-11T08:45:29.986Z,4376
2017-10-11T08:46:10.518Z,4304
2017-10-11T08:46:51.145Z,4304
2017-10-11T08:47:31.699Z,4324
2017-10-11T08:48:12.227Z,4288
2017-10-11T08:48:52.742Z,4316
2017-10-11T08:49:33.282Z,4312
2017-10-11T08:50:13.844Z,4280
2017-10-11T08:50:54.392Z,4300
2017-10-11T08:51:34.916Z,4264
2017-10-11T08:52:15.481Z,4216
2017-10-11T08:52:56.019Z,4216
2017-10-11T08:53:36.581Z,4204
2017-10-11T08:54:17.155Z,4172
2017-10-11T08:54:57.677Z,4140
2017-10-11T08:55:38.236Z,4088
2017-10-11T08:56:18.793Z,4040
2017-10-11T08:56:59.872Z,4080
2017-10-11T08:57:40.415Z,4184
2017-10-11T08:58:20.956Z,4192
2017-10-11T08:59:01.649Z,4176
2017-10-11T08:59:42.057Z,4188
2017-10-11T09:00:22.614Z,4224
2017-10-11T09:01:03.160Z,4268
2017-10-11T09:01:43.719Z,4292
2017-10-11T09:02:24.253Z,4312
2017-10-11T09:03:04.802Z,4288
2017-10-11T09:03:45.343Z,4216
2017-10-11T09:04:25.914Z,4156
2017-10-11T09:05:06.480Z,4164
2017-10-11T09:05:47.019Z,4156
2017-10-11T09:06:27.552Z,4184
2017-10-11T09:07:08.118Z,4192
2017-10-11T09:07:48.672Z,4176
2017-10-11T09:08:29.212Z,4160
2017-10-11T09:09:09.761Z,4116
2017-10-11T09:09:50.309Z,4048
2017-10-11T09:10:30.844Z,4004
2017-10-11T09:11:11.402Z,3956
2017-10-11T09:11:51.911Z,4016
2017-10-11T09:12:32.465Z,4076
2017-10-11T09:13:13.052Z,4088
2017-10-11T09:13:53.594Z,4128
2017-10-11T09:14:34.172Z,4120
2017-10-11T09:15:14.734Z,4160
2017-10-11T09:15:55.257Z,4176
2017-10-11T09:16:35.828Z,4172
2017-10-11T09:17:16.358Z,4124
2017-10-11T09:17:56.913Z,4108
2017-10-11T09:18:37.462Z,4148
2017-10-11T09:19:17.974Z,4140
2017-10-11T09:19:58.488Z,4220
2017-10-11T09:20:39.015Z,4244
2017-10-11T09:21:19.567Z,4284
2017-10-11T09:22:00.112Z,4336
2017-10-11T09:22:40.829Z,4344
2017-10-11T09:23:21.353Z,4352
2017-10-11T09:24:01.872Z,4408
2017-10-11T09:24:42.459Z,4440
2017-10-11T09:25:23.023Z,4420
2017-10-11T09:26:03.551Z,4412
2017-10-11T09:26:44.098Z,4392
2017-10-11T09:27:24.649Z,4332
2017-10-11T09:28:05.184Z,4332
2017-10-11T09:28:45.758Z,4312
2017-10-11T09:29:26.297Z,4276
2017-10-11T09:30:06.848Z,4228
2017-10-11T09:30:47.383Z,4196
2017-10-11T09:31:27.934Z,4168
2017-10-11T09:32:08.501Z,4144
2017-10-11T09:32:49.043Z,4120
2017-10-11T09:33:29.675Z,4072
2017-10-11T09:34:10.234Z,4076
2017-10-11T09:34:50.762Z,4076
2017-10-11T09:35:31.296Z,4104
2017-10-11T09:36:11.866Z,4140
2017-10-11T09:36:52.371Z,4224
2017-10-11T09:37:32.950Z,4280